Time;durP1;ratioP1;P1;durP2;ratioP2;P2;SDS_P1;SDS_P2;PMS_P1;PMS_P2;Temp;Humidity;BMP_temperature;BMP_pressure;BME280_temperature;BME280_humidity;BME280_pressure;Samples;Min_cycle;Max_cycle;Signal;HPM_P1;HPM_P2
2022/08/15 00:01:57;;;;;;;8.70;5.38;;;;;;;21.72;60.88;100226.94;5033460;28;20054;-74
2022/08/15 00:04:24;;;;;;;8.05;5.65;;;;;;;21.70;60.71;100215.09;5034444;28;20080;-75
2022/08/15 00:07:01;;;;;;;16.38;6.30;;;;;;;21.82;60.61;100224.78;5034558;28;20060;-74
2022/08/15 00:09:28;;;;;;;10.35;5.57;;;;;;;21.86;60.64;100215.16;5034577;28;20050;-74
2022/08/15 00:12:17;;;;;;;8.07;4.90;;;;;;;21.76;60.26;100199.44;5034281;28;20575;-74
2022/08/15 00:15:11;;;;;;;11.48;5.75;;;;;;;21.90;60.02;100218.91;5034755;28;20565;-74
2022/08/15 00:17:40;;;;;;;10.40;5.22;;;;;;;21.86;60.06;100208.63;5034344;28;20115;-74
2022/08/15 00:20:17;;;;;;;9.05;5.13;;;;;;;21.90;60.21;100216.06;5033893;28;20049;-74
2022/08/15 00:22:49;;;;;;;8.25;5.07;;;;;;;21.90;59.86;100207.53;5033030;28;20053;-74
2022/08/15 00:25:18;;;;;;;9.77;5.57;;;;;;;21.94;60.13;100205.59;5034195;28;20054;-74
2022/08/15 00:27:52;;;;;;;8.05;4.88;;;;;;;21.86;59.66;100185.91;5033832;28;20524;-75
2022/08/15 00:30:21;;;;;;;8.45;5.15;;;;;;;22.00;59.88;100212.66;5035453;28;20053;-74
2022/08/15 00:32:57;;;;;;;10.00;5.78;;;;;;;21.99;59.78;100207.38;5034655;28;20055;-74
2022/08/15 00:35:48;;;;;;;11.85;5.78;;;;;;;21.98;59.30;100198.00;5035018;28;20077;-74
2022/08/15 00:38:24;;;;;;;6.97;6.00;;;;;;;22.00;59.56;100195.59;5034815;28;20053;-74
2022/08/15 00:44:05;;;;;;;13.32;5.47;;;;;;;21.99;59.95;100196.00;5033781;28;20123;-75
2022/08/15 00:46:34;;;;;;;16.50;6.55;;;;;;;21.94;59.78;100199.91;5033506;28;20087;-75
2022/08/15 00:49:02;;;;;;;9.10;6.13;;;;;;;22.01;59.49;100205.78;5033950;28;20052;-74
2022/08/15 00:51:47;;;;;;;12.23;7.30;;;;;;;21.95;59.56;100200.75;5032723;28;20135;-76
2022/08/15 00:54:27;;;;;;;15.55;7.43;;;;;;;21.93;59.47;100195.44;5019972;28;20546;-75
2022/08/15 00:57:16;;;;;;;10.75;6.13;;;;;;;21.87;59.54;100191.19;5013630;28;20060;-74
2022/08/15 01:00:16;;;;;;;11.43;7.10;;;;;;;21.81;59.54;100172.75;5030960;28;20060;-75
2022/08/15 01:03:02;;;;;;;11.50;6.65;;;;;;;21.95;59.21;100195.91;5033451;28;20049;-75
2022/08/15 01:05:31;;;;;;;14.75;8.00;;;;;;;21.91;59.08;100189.28;5034284;28;20394;-75
2022/08/15 01:08:01;;;;;;;9.63;6.13;;;;;;;21.95;59.13;100195.91;5033168;28;20060;-74
2022/08/15 01:10:32;;;;;;;13.10;6.32;;;;;;;21.91;59.05;100182.75;5033283;28;20053;-74
2022/08/15 01:13:03;;;;;;;11.30;6.88;;;;;;;21.86;58.90;100183.06;5033117;28;20055;-73
2022/08/15 01:15:45;;;;;;;13.02;6.18;;;;;;;21.62;59.31;100158.47;5032947;28;20049;-74
2022/08/15 01:18:12;;;;;;;16.95;7.05;;;;;;;21.50;59.05;100154.50;5032978;28;20049;-75
2022/08/15 01:21:07;;;;;;;14.52;6.57;;;;;;;21.69;59.29;100172.84;5033598;28;20060;-74
2022/08/15 01:23:44;;;;;;;14.95;6.25;;;;;;;21.73;59.05;100179.47;5032883;28;20533;-74
2022/08/15 01:26:23;;;;;;;12.82;6.93;;;;;;;21.68;59.40;100168.38;5033046;28;20080;-74
2022/08/15 01:29:13;;;;;;;13.57;6.63;;;;;;;21.69;59.35;100178.53;5032919;28;20052;-74
2022/08/15 01:31:44;;;;;;;15.77;6.57;;;;;;;21.28;59.33;100112.47;5032899;28;20077;-74
2022/08/15 01:34:16;;;;;;;8.75;5.80;;;;;;;21.71;59.41;100164.81;5032767;28;20049;-74
2022/08/15 01:36:47;;;;;;;8.45;4.88;;;;;;;21.73;58.94;100168.09;5033120;28;20087;-74
2022/08/15 01:39:37;;;;;;;9.15;5.18;;;;;;;21.74;58.95;100164.03;5033672;28;20075;-74
2022/08/15 01:42:13;;;;;;;17.27;6.95;;;;;;;21.69;58.91;100161.50;5033157;28;20123;-74
2022/08/15 01:44:58;;;;;;;8.95;5.18;;;;;;;21.57;58.74;100133.16;5032624;28;20132;-75
2022/08/15 01:47:37;;;;;;;12.40;5.82;;;;;;;21.43;59.21;100111.69;5032589;28;20072;-75
2022/08/15 01:50:13;;;;;;;9.43;4.43;;;;;;;21.71;59.15;100151.41;5032605;28;20042;-75
2022/08/15 01:53:17;;;;;;;9.52;5.10;;;;;;;21.73;59.15;100153.88;5043983;28;20057;-74
2022/08/15 01:55:49;;;;;;;9.00;5.13;;;;;;;21.74;58.95;100149.84;5029188;28;20099;-74
2022/08/15 01:58:22;;;;;;;8.90;4.45;;;;;;;21.56;59.15;100115.28;5056461;28;20059;-74
2022/08/15 02:00:56;;;;;;;11.15;5.55;;;;;;;21.49;58.86;100106.56;5050034;28;20060;-74
2022/08/15 02:03:33;;;;;;;8.63;4.38;;;;;;;21.72;58.91;100136.00;5022076;28;20050;-75
2022/08/15 02:06:25;;;;;;;11.52;4.10;;;;;;;21.76;59.25;100165.34;5024001;28;20053;-76
2022/08/15 02:09:05;;;;;;;8.98;4.82;;;;;;;21.15;59.14;100065.44;5036541;28;20107;-75
2022/08/15 02:11:44;;;;;;;7.75;4.38;;;;;;;21.74;58.97;100152.69;5035231;28;20135;-73
2022/08/15 02:14:31;;;;;;;11.25;5.05;;;;;;;21.73;59.12;100154.69;5036100;28;20099;-74
2022/08/15 02:17:06;;;;;;;9.32;4.93;;;;;;;21.52;59.04;100135.06;5036148;28;20057;-74
2022/08/15 02:19:33;;;;;;;9.23;5.95;;;;;;;21.59;59.24;100159.19;5036218;28;20080;-74
2022/08/15 02:22:12;;;;;;;11.77;5.15;;;;;;;21.51;59.47;100153.31;5035072;28;20112;-74
2022/08/15 02:24:59;;;;;;;7.88;4.68;;;;;;;21.46;59.21;100169.78;5016558;28;20515;-74
2022/08/15 02:27:31;;;;;;;8.93;5.95;;;;;;;21.28;59.78;100138.84;5024991;28;20504;-74
2022/08/15 02:30:01;;;;;;;14.10;5.40;;;;;;;21.07;59.52;100104.19;5044949;28;20041;-74
2022/08/15 02:32:28;;;;;;;8.65;5.18;;;;;;;20.99;59.90;100096.63;5056038;28;20049;-74
2022/08/15 02:34:58;;;;;;;11.48;5.80;;;;;;;21.27;59.76;100144.91;5056194;28;20057;-74
2022/08/15 02:37:25;;;;;;;12.88;5.95;;;;;;;21.09;60.02;100126.53;5056014;28;20064;-74
2022/08/15 02:39:53;;;;;;;6.43;4.72;;;;;;;21.11;59.81;100129.84;5060170;28;20100;-74
2022/08/15 02:42:40;;;;;;;9.38;5.65;;;;;;;20.99;60.02;100131.56;5033065;28;20173;-74
2022/08/15 02:45:14;;;;;;;12.70;6.25;;;;;;;20.89;60.06;100137.75;5036005;28;20049;-74
2022/08/15 02:47:44;;;;;;;10.18;5.57;;;;;;;20.91;60.09;100135.34;5036111;28;20049;-74
2022/08/15 02:50:15;;;;;;;8.15;5.60;;;;;;;20.84;60.26;100135.13;5035645;28;20045;-74
2022/08/15 02:52:44;;;;;;;11.80;6.03;;;;;;;20.79;60.06;100132.56;5036035;28;20049;-74
2022/08/15 02:55:12;;;;;;;14.00;5.65;;;;;;;20.65;60.26;100115.09;5034665;28;20068;-74
2022/08/15 02:57:41;;;;;;;8.23;5.53;;;;;;;20.51;60.22;100107.84;5035493;28;20081;-73
2022/08/15 03:00:28;;;;;;;12.02;6.85;;;;;;;20.55;60.33;100125.78;5035247;28;20545;-74
2022/08/15 03:02:59;;;;;;;11.10;5.70;;;;;;;20.22;60.34;100076.91;5036105;28;20525;-74
2022/08/15 03:05:29;;;;;;;11.82;6.05;;;;;;;20.51;60.59;100133.34;5035982;28;20387;-75
2022/08/15 03:07:56;;;;;;;9.90;6.45;;;;;;;20.38;60.85;100120.34;5035353;28;20088;-74
2022/08/15 03:10:24;;;;;;;13.18;6.82;;;;;;;19.89;61.05;100046.69;5035662;28;20045;-74
2022/08/15 03:13:06;;;;;;;16.75;6.68;;;;;;;20.31;60.72;100120.94;5035559;28;20103;-73
2022/08/15 03:15:42;;;;;;;11.90;5.90;;;;;;;20.30;60.87;100126.97;5035635;28;20084;-73
2022/08/15 03:18:09;;;;;;;9.98;6.82;;;;;;;20.15;61.14;100102.19;5035202;28;20502;-73
2022/08/15 03:20:38;;;;;;;13.95;6.75;;;;;;;19.85;61.08;100055.09;5035664;28;20049;-74
2022/08/15 03:23:07;;;;;;;12.80;6.80;;;;;;;20.26;61.50;100109.00;5035094;28;20084;-73
2022/08/15 03:25:43;;;;;;;12.07;6.57;;;;;;;20.24;61.52;100114.22;5034978;28;20502;-74
2022/08/15 03:28:24;;;;;;;11.35;6.13;;;;;;;19.80;61.69;100049.66;5034943;28;20057;-74
2022/08/15 03:30:55;;;;;;;10.40;6.57;;;;;;;19.86;61.87;100068.09;5035416;28;20506;-74
2022/08/15 03:33:23;;;;;;;10.75;6.65;;;;;;;20.22;62.05;100125.09;5034761;28;20100;-74
2022/08/15 03:36:10;;;;;;;10.15;6.55;;;;;;;19.86;61.97;100070.06;5035046;28;20053;-74
2022/08/15 03:38:37;;;;;;;10.70;6.43;;;;;;;20.18;62.36;100112.81;5034528;28;20080;-74
2022/08/15 03:41:18;;;;;;;11.23;6.80;;;;;;;19.63;62.46;100024.41;5034928;28;20053;-75
2022/08/15 03:43:48;;;;;;;9.82;6.80;;;;;;;19.78;62.86;100054.84;5035376;28;20128;-75
2022/08/15 03:46:18;;;;;;;13.25;7.72;;;;;;;20.27;62.69;100113.50;5034787;28;20151;-74
2022/08/15 03:48:53;;;;;;;18.10;7.18;;;;;;;20.11;62.75;100093.56;5034845;28;20053;-74
2022/08/15 03:51:24;;;;;;;12.70;6.75;;;;;;;20.11;62.91;100085.88;5034981;28;20103;-73
2022/08/15 03:53:55;;;;;;;18.45;7.78;;;;;;;20.26;63.18;100106.19;5034560;28;20572;-73
2022/08/15 03:56:25;;;;;;;13.55;6.70;;;;;;;20.00;63.15;100056.38;5015089;28;20078;-73
2022/08/15 03:58:53;;;;;;;16.55;8.80;;;;;;;19.98;63.11;100038.06;5014873;28;20089;-74
2022/08/15 04:01:27;;;;;;;19.42;8.70;;;;;;;20.41;63.27;100098.94;5014574;28;20050;-74
2022/08/15 04:03:55;;;;;;;17.27;7.63;;;;;;;20.38;63.24;100086.31;5014553;28;20060;-74
2022/08/15 04:06:25;;;;;;;13.45;7.68;;;;;;;20.48;63.39;100093.50;5014492;28;20052;-74
2022/08/15 04:08:54;;;;;;;14.30;8.55;;;;;;;20.34;63.36;100069.19;5014493;28;20046;-74
2022/08/15 04:11:39;;;;;;;16.48;7.53;;;;;;;20.22;63.08;100063.53;5022319;28;20065;-73
2022/08/15 04:14:07;;;;;;;11.65;7.15;;;;;;;20.64;63.05;100107.78;5034208;28;20081;-73
2022/08/15 04:16:56;;;;;;;18.52;7.15;;;;;;;20.45;62.98;100080.88;5034363;28;20144;-73
2022/08/15 04:19:32;;;;;;;11.70;6.63;;;;;;;20.53;63.17;100090.44;5033342;28;20042;-73
2022/08/15 04:22:14;;;;;;;12.88;6.38;;;;;;;20.34;62.90;100055.03;5034230;28;20418;-73
2022/08/15 04:24:59;;;;;;;15.88;6.70;;;;;;;20.47;62.99;100058.63;5032904;28;20136;-73
2022/08/15 04:27:26;;;;;;;15.80;7.25;;;;;;;20.27;63.25;100039.78;5033769;28;20085;-74
2022/08/15 04:29:53;;;;;;;18.45;7.25;;;;;;;20.62;62.69;100076.94;5034079;28;20045;-74
2022/08/15 04:32:26;;;;;;;11.63;6.70;;;;;;;20.81;62.63;100090.44;5033986;28;20494;-74
2022/08/15 04:35:00;;;;;;;10.52;6.63;;;;;;;20.74;62.78;100078.91;5034068;28;20675;-73
2022/08/15 04:37:32;;;;;;;11.52;6.68;;;;;;;20.71;62.86;100071.91;5033579;28;20081;-74
2022/08/15 04:39:59;;;;;;;11.50;7.70;;;;;;;20.74;62.71;100078.91;5032292;28;20053;-74
2022/08/15 04:42:53;;;;;;;16.60;7.07;;;;;;;20.85;62.70;100082.84;5033487;28;20045;-75
2022/08/15 04:45:23;;;;;;;13.40;7.57;;;;;;;20.52;62.73;100055.56;5034281;28;20045;-74
2022/08/15 04:47:51;;;;;;;20.63;8.82;;;;;;;20.62;62.64;100070.44;5033900;28;20399;-74
2022/08/15 04:50:19;;;;;;;13.02;7.97;;;;;;;20.47;63.00;100035.94;5033750;28;20045;-74
2022/08/15 04:52:49;;;;;;;13.60;7.70;;;;;;;20.77;62.84;100090.34;5033463;28;20053;-74
2022/08/15 04:55:16;;;;;;;16.10;8.15;;;;;;;20.67;62.77;100067.34;5033529;28;20494;-74
2022/08/15 04:57:43;;;;;;;16.23;8.18;;;;;;;20.59;62.49;100052.94;5033237;28;20055;-74
2022/08/15 05:00:14;;;;;;;14.80;7.05;;;;;;;20.85;62.85;100085.69;5032978;28;20046;-73
2022/08/15 05:03:00;;;;;;;9.77;6.47;;;;;;;20.87;62.39;100093.88;5033072;28;20084;-73
2022/08/15 05:05:32;;;;;;;14.25;6.80;;;;;;;20.91;62.45;100095.63;5033741;28;20500;-73
2022/08/15 05:08:04;;;;;;;15.43;7.32;;;;;;;20.90;62.12;100093.97;5033456;28;20052;-74
2022/08/15 05:10:40;;;;;;;13.23;8.07;;;;;;;20.54;62.21;100041.03;5033618;28;20050;-74
2022/08/15 05:13:15;;;;;;;14.98;9.90;;;;;;;20.95;62.15;100090.84;5032471;28;20049;-75
2022/08/15 05:15:44;;;;;;;12.82;7.90;;;;;;;20.99;62.13;100093.78;5033196;28;20059;-74
2022/08/15 05:18:20;;;;;;;10.20;7.13;;;;;;;20.71;61.96;100046.38;5032974;28;20060;-74
2022/08/15 05:20:49;;;;;;;11.73;7.38;;;;;;;20.96;61.83;100088.88;5033371;28;20405;-73
2022/08/15 05:23:20;;;;;;;14.55;7.55;;;;;;;20.94;61.72;100089.22;5032850;28;20053;-73
2022/08/15 05:26:09;;;;;;;13.38;6.50;;;;;;;20.69;61.62;100054.44;5033040;28;20136;-75
2022/08/15 05:28:56;;;;;;;14.75;5.75;;;;;;;20.54;61.47;100021.97;5032718;28;20053;-74
2022/08/15 05:31:25;;;;;;;11.23;6.30;;;;;;;21.10;61.30;100111.97;5031929;28;20049;-74
2022/08/15 05:34:00;;;;;;;12.82;7.05;;;;;;;21.03;61.44;100098.41;5032888;28;20055;-74
2022/08/15 05:36:28;;;;;;;10.18;8.02;;;;;;;21.05;61.36;100100.88;5037603;28;20053;-73
2022/08/15 05:39:13;;;;;;;15.60;6.70;;;;;;;20.68;61.41;100052.78;5052653;28;20045;-73
2022/08/15 05:42:05;;;;;;;12.65;6.95;;;;;;;21.08;61.34;100102.16;5028121;28;20077;-73
2022/08/15 05:45:21;;;;;;;14.10;6.45;;;;;;;21.02;61.49;100112.94;5012830;28;20136;-74
2022/08/15 05:48:20;;;;;;;18.90;7.78;;;;;;;20.90;61.37;100105.31;5013269;28;20050;-75
2022/08/15 05:51:10;;;;;;;;;;;;;;;20.83;61.76;100116.47;5013542;28;20045;-74
2022/08/15 05:54:28;;;;;;;12.93;7.43;;;;;;;20.79;61.55;100121.22;5021085;28;19929;-74
2022/08/15 05:57:13;;;;;;;13.02;7.60;;;;;;;20.77;61.37;100113.03;5031101;28;20062;-73
2022/08/15 05:59:50;;;;;;;15.57;7.90;;;;;;;20.95;61.23;100119.25;5032660;28;20465;-74
2022/08/15 06:02:20;;;;;;;13.35;6.15;;;;;;;20.81;60.96;100107.47;5032460;28;20513;-75
2022/08/15 06:05:17;;;;;;;15.70;7.75;;;;;;;20.92;60.92;100122.81;5032575;28;20053;-74
2022/08/15 06:07:48;;;;;;;10.95;6.03;;;;;;;20.90;61.11;100111.00;5032800;28;20053;-73
2022/08/15 06:10:33;;;;;;;13.52;5.18;;;;;;;20.82;61.19;100109.16;5031818;28;20087;-73
2022/08/15 06:13:05;;;;;;;10.18;5.88;;;;;;;21.01;60.63;100122.66;5032651;28;20420;-73
2022/08/15 06:15:48;;;;;;;12.98;5.70;;;;;;;20.91;60.86;100135.34;5032372;28;20054;-73
2022/08/15 06:18:23;;;;;;;11.05;4.82;;;;;;;20.92;60.59;100134.19;5032648;28;20059;-73
2022/08/15 06:20:58;;;;;;;12.88;5.60;;;;;;;20.92;60.60;100151.22;5032317;28;20042;-74
2022/08/15 06:23:40;;;;;;;8.98;5.57;;;;;;;20.93;60.60;100138.66;5032426;28;20089;-74
2022/08/15 06:26:31;;;;;;;13.60;6.38;;;;;;;21.01;60.50;100134.84;5032009;28;20510;-74
2022/08/15 06:29:37;;;;;;;10.55;5.65;;;;;;;21.01;60.56;100136.84;5051188;28;20076;-74
2022/08/15 06:32:12;;;;;;;13.68;5.63;;;;;;;20.50;60.39;100046.59;5067688;28;20099;-74
2022/08/15 06:35:23;;;;;;;10.18;5.78;;;;;;;21.09;60.06;100129.34;5043552;28;20552;-74
2022/08/15 06:38:19;;;;;;;8.57;5.18;;;;;;;21.22;60.04;100134.63;5032288;28;20136;-74
2022/08/15 06:41:06;;;;;;;13.73;5.13;;;;;;;21.23;59.71;100146.78;5031046;28;20099;-74
2022/08/15 06:43:34;;;;;;;12.75;5.70;;;;;;;21.10;59.63;100122.50;5034056;28;20053;-74
2022/08/15 06:46:03;;;;;;;12.02;6.35;;;;;;;20.89;59.57;100097.16;5036561;28;20045;-74
2022/08/15 06:48:50;;;;;;;14.20;6.40;;;;;;;20.87;60.04;100100.38;5036046;28;20053;-75
2022/08/15 06:51:34;;;;;;;12.55;6.50;;;;;;;20.61;59.41;100058.25;5035969;28;20045;-74
2022/08/15 06:54:22;;;;;;;9.85;5.38;;;;;;;20.91;59.78;100098.44;5035926;28;20053;-75
2022/08/15 06:57:34;;;;;;;13.52;6.43;;;;;;;21.24;59.53;100143.59;5035572;28;20100;-75
2022/08/15 07:00:09;;;;;;;14.98;6.72;;;;;;;20.95;59.49;100084.34;5034343;28;20081;-75
2022/08/15 07:03:30;;;;;;;13.65;6.20;;;;;;;21.24;59.64;100145.63;5035704;28;20052;-75
2022/08/15 07:06:03;;;;;;;8.88;6.40;;;;;;;21.02;59.63;100098.75;5024005;28;20095;-74
2022/08/15 07:08:46;;;;;;;10.23;5.50;;;;;;;21.35;59.38;100143.13;5035175;28;20099;-74
2022/08/15 07:11:31;;;;;;;14.82;5.70;;;;;;;20.99;59.21;100093.78;5034248;28;20056;-74
2022/08/15 07:14:09;;;;;;;8.63;5.75;;;;;;;21.39;59.23;100139.16;5035599;28;20460;-74
2022/08/15 07:17:08;;;;;;;10.20;5.57;;;;;;;21.40;59.15;100140.84;5034896;28;20053;-74
2022/08/15 07:19:37;;;;;;;11.77;5.70;;;;;;;21.43;58.87;100145.78;5035570;28;20045;-75
2022/08/15 07:22:06;;;;;;;10.15;5.90;;;;;;;21.51;58.51;100133.44;5034950;28;20461;-75
2022/08/15 07:24:34;;;;;;;;;;;;;;;21.52;59.20;100134.25;5034673;28;20514;-75
2022/08/15 07:27:16;;;;;;;8.40;4.90;;;;;;;21.51;58.59;100118.41;5034664;28;19956;-75
2022/08/15 07:29:54;;;;;;;13.88;5.50;;;;;;;21.44;58.60;100092.66;5035034;28;20089;-75
2022/08/15 07:32:28;;;;;;;11.82;5.63;;;;;;;21.80;58.16;100145.53;5035222;28;20132;-74
2022/08/15 07:35:09;;;;;;;13.48;5.38;;;;;;;21.77;57.76;100127.19;5032917;28;20068;-78
2022/08/15 07:37:40;;;;;;;11.65;5.68;;;;;;;21.83;58.17;100139.13;5034903;28;20542;-75
2022/08/15 07:40:30;;;;;;;6.68;5.03;;;;;;;21.83;58.08;100144.81;5034702;28;20557;-75
2022/08/15 07:43:32;;;;;;;8.48;5.07;;;;;;;21.76;57.88;100125.56;5008688;28;20056;-75
2022/08/15 07:46:24;;;;;;;10.80;5.72;;;;;;;21.93;57.50;100137.75;5015192;28;20100;-75
2022/08/15 07:49:02;;;;;;;6.97;4.93;;;;;;;22.12;57.57;100142.66;5014804;28;20137;-75
2022/08/15 07:51:39;;;;;;;9.38;5.72;;;;;;;22.23;56.80;100146.66;5015007;28;20511;-74
2022/08/15 07:54:37;;;;;;;7.95;4.55;;;;;;;22.22;57.05;100147.81;5033953;28;20431;-74
2022/08/15 07:57:34;;;;;;;10.52;4.93;;;;;;;22.23;56.91;100146.66;5034865;28;20445;-75
2022/08/15 08:00:16;;;;;;;;;;;;;;;22.21;57.55;100146.19;5034806;28;20391;-74
2022/08/15 08:03:23;;;;;;;10.35;4.72;;;;;;;22.36;56.80;100144.50;5034278;28;19927;-75
2022/08/15 08:06:17;;;;;;;11.88;5.28;;;;;;;22.22;56.77;100119.38;5034254;28;20103;-75
2022/08/15 08:09:23;;;;;;;19.52;5.25;;;;;;;22.44;56.22;100154.88;5036277;28;20498;-75
2022/08/15 08:12:07;;;;;;;9.75;5.45;;;;;;;22.17;56.30;100088.41;5054244;28;20087;-75
2022/08/15 08:15:14;;;;;;;8.85;5.18;;;;;;;22.53;55.75;100138.44;5069348;28;20136;-75
2022/08/15 08:17:46;;;;;;;12.90;4.72;;;;;;;22.55;55.60;100144.56;5054041;28;20045;-75
2022/08/15 08:20:46;;;;;;;8.65;5.18;;;;;;;22.58;55.48;100143.00;5054227;28;20412;-75
2022/08/15 08:23:30;;;;;;;7.63;4.80;;;;;;;22.38;55.80;100094.56;5034517;28;20449;-74
2022/08/15 08:26:06;;;;;;;9.98;4.28;;;;;;;22.69;55.08;100149.75;5034659;28;20100;-76
2022/08/15 08:29:19;;;;;;;7.10;4.57;;;;;;;22.64;55.22;100141.50;5054117;28;20049;-74
2022/08/15 08:32:07;;;;;;;6.85;4.57;;;;;;;22.73;55.00;100147.78;5014179;28;20140;-75
2022/08/15 08:34:57;;;;;;;11.48;5.57;;;;;;;22.76;55.02;100158.44;5018463;28;20080;-74
2022/08/15 08:37:23;;;;;;;;;;;;;;;22.69;55.60;100141.19;5034042;28;20049;-75
2022/08/15 08:43:07;;;;;;;6.28;4.28;;;;;;;22.52;54.55;100099.75;5034526;28;20049;-75
2022/08/15 08:45:54;;;;;;;7.22;4.13;;;;;;;22.87;54.46;100136.75;5033845;28;20045;-75
2022/08/15 08:48:59;;;;;;;11.50;4.60;;;;;;;23.03;54.28;100148.06;5033578;28;20050;-75
2022/08/15 08:51:58;;;;;;;11.43;5.07;;;;;;;23.12;53.96;100156.41;5027920;28;20046;-75
2022/08/15 08:54:46;;;;;;;9.73;3.72;;;;;;;23.19;54.42;100145.16;5033222;28;20418;-75
2022/08/15 08:57:50;;;;;;;6.82;4.50;;;;;;;23.32;53.94;100137.28;5033225;28;20053;-74
2022/08/15 09:00:21;;;;;;;9.25;5.13;;;;;;;23.48;53.67;100128.59;5033730;28;20060;-75
2022/08/15 09:03:21;;;;;;;8.90;4.03;;;;;;;23.59;53.39;100139.00;5033223;28;20052;-75
2022/08/15 09:05:51;;;;;;;5.25;3.60;;;;;;;23.72;53.04;100144.53;5027591;28;20426;-77
2022/08/15 09:08:32;;;;;;;8.73;4.28;;;;;;;23.89;52.54;100159.09;5033213;28;20084;-75
2022/08/15 09:11:40;;;;;;;8.57;4.18;;;;;;;23.90;53.00;100154.25;5033251;28;20049;-75
2022/08/15 09:14:20;;;;;;;13.07;4.82;;;;;;;23.99;52.71;100153.97;5033603;28;20104;-74
2022/08/15 09:17:13;;;;;;;5.32;3.88;;;;;;;23.97;52.38;100148.69;5035511;28;20495;-74
2022/08/15 09:20:05;;;;;;;5.75;3.70;;;;;;;24.15;52.12;100154.66;5066357;28;20045;-74
2022/08/15 09:22:44;;;;;;;12.70;3.92;;;;;;;23.99;51.60;100122.59;5052984;28;20045;-75
2022/08/15 09:25:13;;;;;;;7.90;3.95;;;;;;;24.01;51.63;100123.88;5041465;28;20557;-74
2022/08/15 09:27:50;;;;;;;7.10;4.00;;;;;;;24.38;51.51;100160.34;5032749;28;20498;-75
2022/08/15 09:30:26;;;;;;;10.15;4.85;;;;;;;24.43;51.19;100164.91;5033013;28;20199;-75
2022/08/15 09:33:34;;;;;;;6.13;3.35;;;;;;;24.56;51.22;100169.19;5033194;28;20063;-76
2022/08/15 09:36:43;;;;;;;8.65;3.42;;;;;;;24.74;51.17;100169.47;5050044;28;20052;-74
2022/08/15 09:39:17;;;;;;;8.85;3.92;;;;;;;24.92;50.72;100166.84;4999568;28;20054;-75
2022/08/15 09:42:30;;;;;;;7.50;3.58;;;;;;;25.09;50.91;100160.53;5052742;28;20049;-74
2022/08/15 09:45:19;;;;;;;9.50;4.70;;;;;;;25.49;49.92;100164.72;5053045;28;20048;-75
2022/08/15 09:48:15;;;;;;;4.05;3.17;;;;;;;25.66;49.82;100175.53;5051534;28;20049;-74
2022/08/15 09:50:52;;;;;;;12.02;3.75;;;;;;;25.79;49.19;100176.06;5052648;28;20049;-77
2022/08/15 09:53:54;;;;;;;11.60;3.92;;;;;;;25.90;49.27;100167.63;5012740;28;20049;-74
2022/08/15 09:56:32;;;;;;;7.68;3.60;;;;;;;25.87;48.69;100151.25;5012708;28;20054;-74
2022/08/15 09:59:19;;;;;;;6.32;4.00;;;;;;;25.96;47.96;100152.56;5013220;28;20077;-74
2022/08/15 10:01:48;;;;;;;11.23;3.65;;;;;;;26.36;48.17;100168.03;5012931;28;20043;-75
2022/08/15 10:04:49;;;;;;;11.48;3.90;;;;;;;26.89;47.37;100112.31;5013168;28;20520;-76
2022/08/15 10:07:42;;;;;;;5.78;3.47;;;;;;;27.01;46.42;100074.72;5013054;28;20050;-76
2022/08/15 10:10:14;;;;;;;7.40;3.30;;;;;;;27.83;46.01;100163.03;5032838;28;20137;-77
2022/08/15 10:13:07;;;;;;;7.43;3.90;;;;;;;28.01;45.71;100165.94;5032482;28;20571;-75
2022/08/15 10:15:35;;;;;;;6.95;3.53;;;;;;;28.09;45.02;100165.50;5031464;28;20049;-75
2022/08/15 10:18:08;;;;;;;6.25;2.97;;;;;;;28.52;44.73;100158.97;5034606;28;20112;-75
2022/08/15 10:20:40;;;;;;;11.45;3.78;;;;;;;28.56;43.86;100162.63;5036585;28;20490;-76
2022/08/15 10:23:13;;;;;;;7.25;3.78;;;;;;;28.39;43.58;100157.75;5036195;28;20152;-74
2022/08/15 10:25:48;;;;;;;6.97;3.72;;;;;;;28.22;43.72;100119.97;5042725;28;20485;-75
2022/08/15 10:28:22;;;;;;;7.90;3.10;;;;;;;28.32;43.29;100141.31;5056084;28;20428;-76
2022/08/15 10:31:09;;;;;;;6.35;3.10;;;;;;;28.46;43.20;100170.03;5056269;28;20412;-76
2022/08/15 10:33:44;;;;;;;7.78;4.57;;;;;;;28.76;43.13;100154.41;5055910;28;20489;-76
2022/08/15 10:36:35;;;;;;;9.97;3.70;;;;;;;29.40;42.41;100154.19;5038053;28;20516;-74
2022/08/15 10:39:48;;;;;;;4.30;3.20;;;;;;;30.04;42.31;100166.53;5016199;28;20358;-76
2022/08/15 10:42:54;;;;;;;7.82;3.75;;;;;;;30.51;40.91;100158.31;5030474;28;20045;-76
2022/08/15 10:45:46;;;;;;;4.95;3.40;;;;;;;30.62;41.09;100142.56;5013929;28;20474;-78
2022/08/15 10:48:43;;;;;;;4.97;3.63;;;;;;;30.74;40.10;100149.84;5036216;28;20049;-76
2022/08/15 10:51:31;;;;;;;6.88;3.50;;;;;;;31.15;39.89;100151.88;5035873;28;20049;-76
2022/08/15 10:54:24;;;;;;;5.18;3.13;;;;;;;31.39;38.98;100127.66;5035642;28;20659;-76
2022/08/15 10:57:05;;;;;;;7.43;3.47;;;;;;;31.74;38.25;100136.22;5035570;28;20533;-75
2022/08/15 10:59:41;;;;;;;11.50;4.18;;;;;;;31.89;37.94;100084.88;5036009;28;20054;-75
2022/08/15 11:02:21;;;;;;;6.18;3.50;;;;;;;32.86;37.39;100141.75;5035823;28;20381;-76
2022/08/15 11:05:10;;;;;;;6.35;3.53;;;;;;;33.45;35.92;100062.78;5048785;28;20518;-75
2022/08/15 11:07:46;;;;;;;6.20;2.75;;;;;;;34.30;34.97;100134.38;5035455;28;20517;-76
2022/08/15 11:10:28;;;;;;;8.52;3.03;;;;;;;33.63;35.60;100083.44;5035688;28;20057;-80
2022/08/15 11:13:06;;;;;;;5.97;3.00;;;;;;;33.68;35.62;100100.31;5035595;28;20076;-75
2022/08/15 11:15:55;;;;;;;4.68;2.88;;;;;;;33.65;35.48;100101.19;5034108;28;20054;-75
2022/08/15 11:18:34;;;;;;;7.90;3.00;;;;;;;33.64;35.54;100121.91;5030841;28;20050;-75
2022/08/15 11:21:16;;;;;;;5.78;2.97;;;;;;;32.99;35.75;100105.97;5035341;28;20088;-76
2022/08/15 11:23:53;;;;;;;5.60;3.72;;;;;;;33.07;35.37;100112.41;5035101;28;20053;-75
2022/08/15 11:26:28;;;;;;;5.60;2.63;;;;;;;33.07;34.92;100106.63;5034849;28;20104;-75
2022/08/15 11:29:07;;;;;;;6.22;3.70;;;;;;;33.10;35.28;100104.94;5032568;28;20052;-76
2022/08/15 11:31:47;;;;;;;4.07;2.92;;;;;;;33.18;34.93;100115.88;5035292;28;20049;-76
2022/08/15 11:34:47;;;;;;;5.68;3.10;;;;;;;33.11;35.28;100113.16;5035441;28;20049;-75
2022/08/15 11:37:23;;;;;;;7.82;3.28;;;;;;;33.32;34.38;100106.06;5033475;28;20045;-75
2022/08/15 11:40:00;;;;;;;4.03;3.20;;;;;;;33.37;34.31;100117.13;5034969;28;20061;-75
2022/08/15 11:42:39;;;;;;;7.30;2.85;;;;;;;33.42;34.10;100101.31;5034682;28;20049;-76
2022/08/15 11:45:30;;;;;;;3.83;2.55;;;;;;;33.76;33.70;100120.41;5034993;28;20049;-76
2022/08/15 11:48:22;;;;;;;2.53;2.03;;;;;;;34.00;33.93;100119.00;5034676;28;20049;-75
2022/08/15 11:51:13;;;;;;;4.78;2.35;;;;;;;34.19;33.00;100123.88;5035436;28;20115;-75
2022/08/15 11:54:17;;;;;;;4.60;2.88;;;;;;;33.92;33.58;100115.44;5034689;28;20494;-75
2022/08/15 11:57:04;;;;;;;4.53;2.42;;;;;;;33.66;32.88;100081.75;5034696;28;20049;-75
2022/08/15 12:00:05;;;;;;;4.82;2.63;;;;;;;33.90;32.63;100111.34;5034819;28;20145;-75
2022/08/15 12:02:34;;;;;;;4.93;2.40;;;;;;;33.90;32.19;100085.28;5034346;28;20049;-76
2022/08/15 12:05:16;;;;;;;4.88;2.30;;;;;;;33.99;32.41;100102.84;5034365;28;20053;-75
2022/08/15 12:08:06;;;;;;;4.95;2.10;;;;;;;34.15;31.43;100096.25;5044240;28;20045;-75
2022/08/15 12:11:15;;;;;;;3.15;2.13;;;;;;;34.17;31.23;100091.63;5040776;28;20055;-75
2022/08/15 12:13:58;;;;;;;7.75;2.95;;;;;;;34.96;30.25;100071.25;5034857;28;20438;-75
2022/08/15 12:16:31;;;;;;;4.35;2.28;;;;;;;35.90;29.25;100076.59;5034095;28;20124;-75
2022/08/15 12:19:27;;;;;;;6.22;2.03;;;;;;;36.58;28.80;100079.25;5034398;28;20119;-75
2022/08/15 12:22:00;;;;;;;5.07;2.15;;;;;;;37.18;27.31;100070.34;5035335;28;20103;-75
2022/08/15 12:24:48;;;;;;;6.03;1.92;;;;;;;37.56;26.71;100075.91;5041418;28;20052;-77
2022/08/15 12:27:15;;;;;;;4.68;2.08;;;;;;;37.64;26.60;100064.75;5053805;28;20083;-75
2022/08/15 12:29:44;;;;;;;4.85;2.35;;;;;;;37.97;25.90;100040.94;5053856;28;20063;-75
2022/08/15 12:32:16;;;;;;;3.20;2.15;;;;;;;39.37;24.66;100067.53;5054052;28;20063;-75